Time;durP1;ratioP1;P1;durP2;ratioP2;P2;SDS_P1;SDS_P2;PMS_P1;PMS_P2;Temp;Humidity;BMP_temperature;BMP_pressure;BME280_temperature;BME280_humidity;BME280_pressure;Samples;Min_cycle;Max_cycle;Signal;HPM_P1;HPM_P2
2022/05/22 00:01:51;;;;;;;;;;;;;;;10.46;100.00;-25360.00;5054438;28;19916;-76
2022/05/22 00:04:18;;;;;;;;;;;;;;;10.46;100.00;-25360.16;5054515;28;19916;-75
2022/05/22 00:06:43;;;;;;;;;;;;;;;10.40;100.00;-25358.53;5073169;28;20326;-81
2022/05/22 00:09:08;;;;;;;;;;;;;;;10.46;100.00;-25360.16;5055954;28;19916;-80
2022/05/22 00:11:33;;;;;;;;;;;;;;;10.50;100.00;-25361.31;5055242;28;19958;-80
2022/05/22 00:14:00;;;;;;;;;;;;;;;10.53;100.00;-25362.06;5055649;28;19924;-79
2022/05/22 00:16:38;;;;;;;;;;;;;;;10.55;100.00;-25362.63;5055868;28;19951;-79
2022/05/22 00:19:04;;;;;;;;;;;;;;;10.50;100.00;-25361.19;5073372;28;20309;-80
2022/05/22 00:21:29;;;;;;;;;;;;;;;10.46;100.00;-25360.00;5055010;28;19963;-75
2022/05/22 00:23:55;;;;;;;;;;;;;;;10.40;100.00;-25358.53;5054484;28;20385;-74
2022/05/22 00:26:20;;;;;;;;;;;;;;;10.39;100.00;-25358.25;5051420;28;19912;-78
2022/05/22 00:28:46;;;;;;;;;;;;;;;10.36;100.00;-25357.38;5071796;28;20379;-80
2022/05/22 00:31:11;;;;;;;;;;;;;;;10.36;100.00;-25357.38;5073065;28;20060;-78
2022/05/22 00:33:37;;;;;;;;;;;;;;;10.28;100.00;-25355.00;5038273;28;20415;-80
2022/05/22 00:36:03;;;;;;;;;;;;;;;10.32;100.00;-25356.03;5049472;28;20399;-78
2022/05/22 00:38:29;;;;;;;;;;;;;;;10.29;100.00;-25355.31;5055075;28;19916;-80
2022/05/22 00:40:55;;;;;;;;;;;;;;;10.21;100.00;-25353.09;5054697;28;20024;-76
2022/05/22 00:43:28;;;;;;;;;;;;;;;10.19;100.00;-25352.50;5053319;28;20368;-75
2022/05/22 00:45:53;;;;;;;;;;;;;;;10.23;100.00;-25353.53;5053639;28;20325;-75
2022/05/22 00:48:19;;;;;;;;;;;;;;;10.23;100.00;-25353.69;5054305;28;19982;-74
2022/05/22 00:50:44;;;;;;;;;;;;;;;10.22;100.00;-25353.25;5071806;28;19917;-75
2022/05/22 00:53:11;;;;;;;;;;;;;;;10.20;100.00;-25352.66;5053390;28;20277;-75
2022/05/22 00:55:37;;;;;;;;;;;;;;;10.16;100.00;-25351.47;5054029;28;19927;-75
2022/05/22 00:58:06;;;;;;;;;;;;;;;10.15;100.00;-25351.19;5054159;28;20292;-76
2022/05/22 01:00:33;;;;;;;;;;;;;;;10.22;100.00;-25353.41;5053357;28;20308;-74
2022/05/22 01:05:45;;;;;;;;;;;;;;;10.16;100.00;-25351.47;5071759;28;19923;-75
2022/05/22 01:08:10;;;;;;;;;;;;;;;10.09;100.00;-25349.56;5071328;28;19917;-74
2022/05/22 01:10:40;;;;;;;;;;;;;;;9.99;100.00;-25346.78;5053877;28;19969;-76
2022/05/22 01:13:07;;;;;;;;;;;;;;;9.95;100.00;-25345.63;5053611;28;19967;-74
2022/05/22 01:15:32;;;;;;;;;;;;;;;10.05;100.00;-25348.41;5053434;28;19974;-74
2022/05/22 01:17:57;;;;;;;;;;;;;;;10.01;100.00;-25347.38;5053888;28;19916;-75
2022/05/22 01:20:22;;;;;;;;;;;;;;;10.06;100.00;-25348.84;5053100;28;19916;-73
2022/05/22 01:22:49;;;;;;;;;;;;;;;10.07;100.00;-25349.13;5053172;28;20357;-74
2022/05/22 01:25:14;;;;;;;;;;;;;;;10.07;100.00;-25349.00;5057465;28;19920;-75
2022/05/22 01:27:40;;;;;;;;;;;;;;;10.09;100.00;-25349.56;5057116;28;19916;-76
2022/05/22 01:30:05;;;;;;;;;;;;;;;10.14;100.00;-25350.91;5054170;28;20002;-76
2022/05/22 01:32:34;;;;;;;;;;;;;;;10.03;100.00;-25347.81;5054103;28;19923;-76
2022/05/22 01:34:59;;;;;;;;;;;;;;;9.99;100.00;-25346.63;5053349;28;20692;-76
2022/05/22 01:37:25;;;;;;;;;;;;;;;9.98;100.00;-25346.50;5054254;28;19924;-73
2022/05/22 01:39:51;;;;;;;;;;;;;;;9.95;100.00;-25345.63;5053475;28;19938;-73
2022/05/22 01:42:16;;;;;;;;;;;;;;;10.02;100.00;-25347.53;5053638;28;19916;-76
2022/05/22 01:44:43;;;;;;;;;;;;;;;10.03;100.00;-25347.97;5037104;28;19931;-76
2022/05/22 01:47:08;;;;;;;;;;;;;;;10.01;100.00;-25347.22;5054127;28;19939;-77
2022/05/22 01:49:34;;;;;;;;;;;;;;;9.95;100.00;-25345.47;5053997;28;19920;-76
2022/05/22 01:51:59;;;;;;;;;;;;;;;9.92;100.00;-25344.72;5053860;28;19963;-76
2022/05/22 01:54:25;;;;;;;;;;;;;;;9.98;100.00;-25346.50;5053608;28;19917;-76
2022/05/22 01:56:50;;;;;;;;;;;;;;;9.89;100.00;-25343.84;5053229;28;20004;-76
2022/05/22 01:59:16;;;;;;;;;;;;;;;9.88;100.00;-25343.72;5053544;28;20016;-76
2022/05/22 02:01:41;;;;;;;;;;;;;;;9.88;100.00;-25343.56;5053205;28;19925;-75
2022/05/22 02:04:07;;;;;;;;;;;;;;;9.85;100.00;-25342.81;5036186;28;20206;-76
2022/05/22 02:06:33;;;;;;;;;;;;;;;9.77;100.00;-25340.47;5053160;28;20369;-74
2022/05/22 02:08:58;;;;;;;;;;;;;;;9.78;100.00;-25340.63;5052314;28;19920;-74
2022/05/22 02:11:23;;;;;;;;;;;;;;;9.81;100.00;-25341.50;5052690;28;19955;-78
2022/05/22 02:13:56;;;;;;;;;;;;;;;9.78;100.00;-25340.75;5054324;28;19928;-78
2022/05/22 02:16:21;;;;;;;;;;;;;;;9.82;100.00;-25341.94;5054567;28;19952;-79
2022/05/22 02:18:46;;;;;;;;;;;;;;;9.84;100.00;-25342.38;5054436;28;19921;-79
2022/05/22 02:21:11;;;;;;;;;;;;;;;9.77;100.00;-25340.31;5054595;28;19920;-74
2022/05/22 02:23:42;;;;;;;;;;;;;;;9.77;100.00;-25340.47;5054140;28;19938;-78
2022/05/22 02:26:09;;;;;;;;;;;;;;;9.79;100.00;-25340.91;5052683;28;20003;-75
2022/05/22 02:28:34;;;;;;;;;;;;;;;9.83;100.00;-25342.09;5052358;28;20429;-74
2022/05/22 02:31:01;;;;;;;;;;;;;;;9.76;100.00;-25340.03;5036012;28;19959;-75
2022/05/22 02:33:28;;;;;;;;;;;;;;;9.69;100.00;-25338.13;5053003;28;19917;-75
2022/05/22 02:35:53;;;;;;;;;;;;;;;9.68;100.00;-25337.84;5052826;28;19924;-76
2022/05/22 02:38:19;;;;;;;;;;;;;;;9.59;100.00;-25335.34;5054568;28;19917;-79
2022/05/22 02:40:45;;;;;;;;;;;;;;;9.59;100.00;-25335.34;5053287;28;19917;-79
2022/05/22 02:43:12;;;;;;;;;;;;;;;9.69;100.00;-25338.28;5054725;28;19952;-78
2022/05/22 02:45:39;;;;;;;;;;;;;;;9.70;100.00;-25338.56;5053556;28;19917;-79
2022/05/22 02:48:05;;;;;;;;;;;;;;;9.67;100.00;-25337.69;5054664;28;20387;-80
2022/05/22 02:50:30;;;;;;;;;;;;;;;9.67;100.00;-25337.69;5053260;28;19962;-79
2022/05/22 02:52:56;;;;;;;;;;;;;;;9.70;100.00;-25338.56;5053131;28;19952;-79
2022/05/22 02:55:22;;;;;;;;;;;;;;;9.69;100.00;-25338.28;5054559;28;20080;-80
2022/05/22 02:57:47;;;;;;;;;;;;;;;9.74;100.00;-25339.59;5036936;28;19917;-79
2022/05/22 03:00:18;;;;;;;;;;;;;;;9.67;100.00;-25337.69;5053142;28;19928;-80
2022/05/22 03:02:43;;;;;;;;;;;;;;;9.58;100.00;-25334.88;5052456;28;19920;-74
2022/05/22 03:05:09;;;;;;;;;;;;;;;9.52;100.00;-25333.44;5051229;28;19924;-75
2022/05/22 03:07:36;;;;;;;;;;;;;;;9.56;100.00;-25334.44;5051163;28;19968;-74
2022/05/22 03:10:02;;;;;;;;;;;;;;;9.58;100.00;-25334.88;5051836;28;19917;-76
2022/05/22 03:12:28;;;;;;;;;;;;;;;9.55;100.00;-25334.16;5052019;28;19921;-75
2022/05/22 03:14:55;;;;;;;;;;;;;;;9.57;100.00;-25334.59;5051917;28;20254;-75
2022/05/22 03:17:21;;;;;;;;;;;;;;;9.55;100.00;-25334.00;5053000;28;19963;-74
2022/05/22 03:19:46;;;;;;;;;;;;;;;9.51;100.00;-25333.13;5051556;28;19972;-74
2022/05/22 03:22:12;;;;;;;;;;;;;;;9.42;100.00;-25330.34;5051660;28;19959;-75
2022/05/22 03:24:39;;;;;;;;;;;;;;;9.47;100.00;-25331.81;5051134;28;20328;-75
2022/05/22 03:27:05;;;;;;;;;;;;;;;9.48;100.00;-25332.25;5051867;28;20350;-75
2022/05/22 03:29:30;;;;;;;;;;;;;;;9.58;100.00;-25334.88;5051065;28;19963;-74
2022/05/22 03:31:55;;;;;;;;;;;;;;;9.60;100.00;-25335.63;5051771;28;19952;-74
2022/05/22 03:34:24;;;;;;;;;;;;;;;9.59;100.00;-25335.34;5050500;28;20544;-75
2022/05/22 03:36:49;;;;;;;;;;;;;;;9.58;100.00;-25334.88;5051528;28;19921;-75
2022/05/22 03:39:15;;;;;;;;;;;;;;;9.60;100.00;-25335.63;5051644;28;19990;-75
2022/05/22 03:41:41;;;;;;;;;;;;;;;9.57;100.00;-25334.59;5051877;28;19924;-75
2022/05/22 03:44:06;;;;;;;;;;;;;;;9.58;100.00;-25335.03;5051639;28;20382;-74
2022/05/22 03:46:32;;;;;;;;;;;;;;;9.62;100.00;-25336.06;5050650;28;19951;-75
2022/05/22 03:48:57;;;;;;;;;;;;;;;9.72;100.00;-25338.84;5050420;28;20004;-75
2022/05/22 03:51:22;;;;;;;;;;;;;;;9.70;100.00;-25338.41;5050938;28;19958;-74
2022/05/22 03:53:50;;;;;;;;;;;;;;;9.69;100.00;-25338.13;5050814;28;19917;-75
2022/05/22 03:56:16;;;;;;;;;;;;;;;9.74;100.00;-25339.44;5051141;28;19917;-75
2022/05/22 03:58:42;;;;;;;;;;;;;;;9.81;100.00;-25341.50;5052224;28;19960;-74
2022/05/22 04:01:07;;;;;;;;;;;;;;;9.79;100.00;-25341.06;5050771;28;19963;-74
2022/05/22 04:03:38;;;;;;;;;;;;;;;9.82;100.00;-25341.94;5050172;28;20015;-75
2022/05/22 04:06:04;;;;;;;;;;;;;;;9.94;100.00;-25345.16;5051284;28;20264;-74
2022/05/22 04:08:30;;;;;;;;;;;;;;;10.05;100.00;-25348.41;5050711;28;19979;-75
2022/05/22 04:10:56;;;;;;;;;;;;;;;10.17;100.00;-25351.94;5050368;28;19959;-75
2022/05/22 04:13:21;;;;;;;;;;;;;;;10.35;100.00;-25356.94;5050815;28;19968;-75
2022/05/22 04:15:47;;;;;;;;;;;;;;;10.55;100.00;-25362.63;5051280;28;19939;-76
2022/05/22 04:18:13;;;;;;;;;;;;;;;11.32;100.00;-25384.63;5050451;28;20292;-75
2022/05/22 04:20:38;;;;;;;;;;;;;;;12.50;100.00;-25418.31;5050399;28;20019;-75
2022/05/22 04:25:52;;;;;;;;;;;;;;;13.18;100.00;-25437.44;5051587;28;20026;-76
2022/05/22 04:28:18;;;;;;;;;;;;;;;13.23;100.00;-25438.91;5050519;28;20292;-76
2022/05/22 04:30:43;;;;;;;;;;;;;;;12.81;100.00;-25427.06;5049871;28;19925;-76
2022/05/22 04:33:09;;;;;;;;;;;;;;;12.67;100.00;-25422.97;5050058;28;20007;-75
2022/05/22 04:35:37;;;;;;;;;;;;;;;12.64;100.00;-25422.09;5049756;28;19964;-77
2022/05/22 04:38:02;;;;;;;;;;;;;;;12.88;100.00;-25429.13;5051170;28;19921;-75
2022/05/22 04:40:27;;;;;;;;;;;;;;;13.39;100.00;-25443.59;5050431;28;19970;-78
2022/05/22 04:42:54;;;;;;;;;;;;;;;14.04;100.00;-25461.97;5050230;28;19924;-76
2022/05/22 04:45:19;;;;;;;;;;;;;;;14.27;100.00;-25468.53;5049823;28;19912;-75
2022/05/22 04:47:44;;;;;;;;;;;;;;;14.80;100.00;-25483.38;5050078;28;19924;-80
2022/05/22 04:50:11;;;;;;;;;;;;;;;15.65;100.00;-25507.53;5034329;28;19928;-79
2022/05/22 04:52:36;;;;;;;;;;;;;;;16.05;100.00;-25518.88;5049238;28;19956;-75
2022/05/22 04:55:02;;;;;;;;;;;;;;;16.51;100.00;-25531.94;5050124;28;20012;-75
2022/05/22 04:57:27;;;;;;;;;;;;;;;15.82;100.00;-25512.19;5049487;28;20011;-75
2022/05/22 04:59:52;;;;;;;;;;;;;;;15.54;100.00;-25504.50;5052509;28;20277;-74
2022/05/22 05:02:18;;;;;;;;;;;;;;;15.54;100.00;-25504.34;5053952;28;19924;-76
2022/05/22 05:04:43;;;;;;;;;;;;;;;15.85;100.00;-25513.06;5053427;28;19912;-78
2022/05/22 05:07:09;;;;;;;;;;;;;;;15.60;100.00;-25506.09;5053561;28;20324;-76
2022/05/22 05:09:34;;;;;;;;;;;;;;;14.41;100.00;-25472.31;5054372;28;19999;-80
2022/05/22 05:12:00;;;;;;;;;;;;;;;14.08;100.00;-25462.97;5054486;28;20011;-79
2022/05/22 05:14:28;;;;;;;;;;;;;;;14.60;100.00;-25477.84;5054837;28;19967;-80
2022/05/22 05:16:53;;;;;;;;;;;;;;;14.44;100.00;-25473.19;5054849;28;20000;-80
2022/05/22 05:19:18;;;;;;;;;;;;;;;14.03;100.00;-25461.53;5054258;28;19964;-79
2022/05/22 05:21:44;;;;;;;;;;;;;;;13.99;100.00;-25460.50;5071248;28;20328;-78
2022/05/22 05:24:09;;;;;;;;;;;;;;;14.58;100.00;-25477.13;5054851;28;19924;-75
2022/05/22 05:26:35;;;;;;;;;;;;;;;15.68;100.00;-25508.28;5052530;28;19923;-74
2022/05/22 05:29:00;;;;;;;;;;;;;;;16.24;100.00;-25524.13;5052394;28;19921;-75
2022/05/22 05:31:25;;;;;;;;;;;;;;;16.11;100.00;-25520.47;5053520;28;19981;-73
2022/05/22 05:33:52;;;;;;;;;;;;;;;16.05;100.00;-25518.72;5052127;28;20106;-75
2022/05/22 05:36:17;;;;;;;;;;;;;;;15.57;100.00;-25505.34;5053077;28;19960;-75
2022/05/22 05:38:42;;;;;;;;;;;;;;;14.97;100.00;-25488.34;5052552;28;20043;-73
2022/05/22 05:41:08;;;;;;;;;;;;;;;14.74;100.00;-25481.63;5052337;28;20597;-77
2022/05/22 05:43:34;;;;;;;;;;;;;;;14.75;100.00;-25481.94;5052855;28;19916;-74
2022/05/22 05:45:59;;;;;;;;;;;;;;;15.24;100.00;-25496.06;5053183;28;20024;-72
2022/05/22 05:48:24;;;;;;;;;;;;;;;15.55;100.00;-25504.63;5053717;28;20436;-74
2022/05/22 05:50:50;;;;;;;;;;;;;;;15.65;100.00;-25507.53;5052840;28;19917;-74
2022/05/22 05:53:15;;;;;;;;;;;;;;;15.46;100.00;-25502.16;5053824;28;19917;-74
2022/05/22 05:55:41;;;;;;;;;;;;;;;15.71;100.00;-25509.28;5052086;28;20011;-76
2022/05/22 05:58:06;;;;;;;;;;;;;;;15.70;100.00;-25508.84;5053281;28;19927;-75
2022/05/22 06:00:31;;;;;;;;;;;;;;;15.34;100.00;-25498.66;5052506;28;19923;-75
2022/05/22 06:02:56;;;;;;;;;;;;;;;15.49;100.00;-25502.88;5052345;28;19917;-74
2022/05/22 06:05:22;;;;;;;;;;;;;;;15.40;100.00;-25500.56;5052860;28;19920;-77
2022/05/22 06:07:48;;;;;;;;;;;;;;;15.68;100.00;-25508.28;5052280;28;19963;-79
2022/05/22 06:10:14;;;;;;;;;;;;;;;15.92;100.00;-25515.09;5035136;28;19924;-77
2022/05/22 06:12:39;;;;;;;;;;;;;;;15.56;100.00;-25504.91;5036204;28;19990;-76
2022/05/22 06:15:05;;;;;;;;;;;;;;;15.35;100.00;-25499.09;5053002;28;19917;-77
2022/05/22 06:17:36;;;;;;;;;;;;;;;15.34;100.00;-25498.81;5051584;28;19917;-76
2022/05/22 06:20:06;;;;;;;;;;;;;;;15.10;100.00;-25491.81;5053964;28;19964;-74
2022/05/22 06:22:33;;;;;;;;;;;;;;;15.16;100.00;-25493.56;5036245;28;19924;-76
2022/05/22 06:25:00;;;;;;;;;;;;;;;15.38;100.00;-25499.81;5052999;28;20313;-74
2022/05/22 06:27:25;;;;;;;;;;;;;;;15.72;100.00;-25509.44;5052474;28;19920;-76
2022/05/22 06:29:51;;;;;;;;;;;;;;;15.63;100.00;-25506.97;5050777;28;19927;-77
2022/05/22 06:32:18;;;;;;;;;;;;;;;15.49;100.00;-25502.88;5051461;28;20381;-75
2022/05/22 06:34:46;;;;;;;;;;;;;;;15.62;100.00;-25506.81;5051344;28;20415;-75
2022/05/22 06:37:13;;;;;;;;;;;;;;;16.04;100.00;-25518.44;5052059;28;19994;-74
2022/05/22 06:39:51;;;;;;;;;;;;;;;16.00;100.00;-25517.44;5051001;28;19917;-74
2022/05/22 06:42:18;;;;;;;;;;;;;;;16.22;100.00;-25523.69;5051626;28;19917;-75
2022/05/22 06:44:44;;;;;;;;;;;;;;;16.51;100.00;-25531.94;5049893;28;20436;-76
2022/05/22 06:47:10;;;;;;;;;;;;;;;16.48;100.00;-25531.09;5051532;28;20000;-75
2022/05/22 06:49:35;;;;;;;;;;;;;;;16.75;100.00;-25538.63;5052635;28;19917;-74
2022/05/22 06:52:00;;;;;;;;;;;;;;;16.59;100.00;-25534.13;5050594;28;20296;-76
2022/05/22 06:54:29;;;;;;;;;;;;;;;16.59;100.00;-25534.13;5052210;28;19980;-76
2022/05/22 06:56:54;;;;;;;;;;;;;;;16.54;100.00;-25532.53;5052501;28;19924;-76
2022/05/22 06:59:19;;;;;;;;;;;;;;;16.48;100.00;-25531.09;5050068;28;19917;-75
2022/05/22 07:01:44;;;;;;;;;;;;;;;16.62;100.00;-25535.00;5051016;28;20287;-73
2022/05/22 07:04:10;;;;;;;;;;;;;;;17.04;100.00;-25546.75;5050965;28;19917;-76
2022/05/22 07:06:35;;;;;;;;;;;;;;;17.36;100.00;-25555.75;5050157;28;19921;-76
2022/05/22 07:09:00;;;;;;;;;;;;;;;18.18;100.00;-25578.78;5051423;28;20285;-75
2022/05/22 07:11:38;;;;;;;;;;;;;;;18.89;100.00;-19640.09;5050621;28;19924;-75
2022/05/22 07:14:03;;;;;;;;;;;;;;;20.02;100.00;-369.38;5051742;28;19997;-77
2022/05/22 07:16:28;;;;;;;;;;;;;;;21.01;100.00;57174.66;5051249;28;19917;-76
2022/05/22 07:18:53;;;;;;;;;;;;;;;21.86;100.00;91004.59;5050098;28;19916;-78
2022/05/22 07:21:19;;;;;;;;;;;;;;;20.97;100.00;131739.84;5049895;28;20034;-77
2022/05/22 07:23:44;;;;;;;;;;;;;;;20.87;100.00;147653.13;5033574;28;19990;-75
2022/05/22 07:26:09;;;;;;;;;;;;;;;20.52;100.00;147881.41;5050548;28;19987;-76
2022/05/22 07:28:35;;;;;;;;;;;;;;;20.04;100.00;147763.56;5055419;28;20007;-77
2022/05/22 07:31:00;;;;;;;;;;;;;;;21.08;100.00;148022.38;5053967;28;20011;-77
2022/05/22 07:33:25;;;;;;;;;;;;;;;21.64;100.00;148160.91;5053575;28;19916;-79
2022/05/22 07:35:55;;;;;;;;;;;;;;;22.28;100.00;148321.22;5053697;28;19970;-75
2022/05/22 07:38:20;;;;;;;;;;;;;;;22.11;100.00;148278.91;5072054;28;20379;-79
2022/05/22 07:40:45;;;;;;;;;;;;;;;22.47;100.00;148368.72;5036385;28;19925;-75
2022/05/22 07:43:11;;;;;;;;;;;;;;;22.86;100.00;148466.22;5053452;28;20018;-79
2022/05/22 07:45:36;;;;;;;;;;;;;;;23.16;100.00;148540.72;5037400;28;19959;-78
2022/05/22 07:48:01;;;;;;;;;;;;;;;23.00;100.00;148499.63;5053084;28;20337;-77
2022/05/22 07:50:26;;;;;;;;;;;;;;;23.00;100.00;148499.63;5052991;28;20287;-78
2022/05/22 07:52:52;;;;;;;;;;;;;;;23.33;100.00;148581.78;5053045;28;19960;-78
2022/05/22 07:55:18;;;;;;;;;;;;;;;22.61;100.00;148402.06;5070369;28;19917;-77
2022/05/22 07:57:44;;;;;;;;;;;;;;;23.29;100.00;148572.81;5053307;28;20011;-77
2022/05/22 08:00:11;;;;;;;;;;;;;;;23.59;100.00;148648.53;5053445;28;19920;-76
2022/05/22 08:02:36;;;;;;;;;;;;;;;21.85;100.00;148214.75;5052168;28;20507;-78
2022/05/22 08:05:01;;;;;;;;;;;;;;;22.43;100.00;148357.19;5036619;28;19928;-77
2022/05/22 08:07:26;;;;;;;;;;;;;;;21.62;100.00;148157.03;5053710;28;19917;-75
2022/05/22 08:09:52;;;;;;;;;;;;;;;22.52;100.00;148381.53;5070101;28;19921;-78
2022/05/22 08:12:18;;;;;;;;;;;;;;;22.46;100.00;148366.16;5053019;28;20007;-77
2022/05/22 08:14:44;;;;;;;;;;;;;;;22.74;100.00;148436.69;5052513;28;20027;-76
2022/05/22 08:17:10;;;;;;;;;;;;;;;21.72;100.00;148181.44;5070574;28;19958;-77
2022/05/22 08:19:35;;;;;;;;;;;;;;;21.44;100.00;148112.16;5052502;28;19970;-76
2022/05/22 08:22:00;;;;;;;;;;;;;;;22.06;100.00;148266.03;5052526;28;19917;-77
2022/05/22 08:24:26;;;;;;;;;;;;;;;21.69;100.00;148173.75;5052520;28;19923;-75
2022/05/22 08:26:51;;;;;;;;;;;;;;;23.13;100.00;148533.00;5070153;28;19917;-78
2022/05/22 08:29:16;;;;;;;;;;;;;;;23.18;100.00;148545.88;5052398;28;19920;-76
2022/05/22 08:31:43;;;;;;;;;;;;;;;21.86;100.00;148216.03;5036059;28;19934;-77
2022/05/22 08:34:08;;;;;;;;;;;;;;;21.84;100.00;148212.16;5059850;28;19912;-75
2022/05/22 08:36:33;;;;;;;;;;;;;;;21.62;100.00;148157.03;5059067;28;19917;-76
2022/05/22 08:38:58;;;;;;;;;;;;;;;20.99;100.00;147999.38;5077039;28;19927;-76
2022/05/22 08:41:53;;;;;;;;;;;;;;;21.42;100.00;148105.72;5059423;28;19963;-77
2022/05/22 08:44:22;;;;;;;;;;;;;;;22.40;100.00;148352.06;5047797;28;20242;-80
2022/05/22 08:46:58;;;;;;;;;;;;;;;21.74;100.00;148185.28;5062290;28;19974;-77
2022/05/22 08:49:42;;;;;;;;;;;;;;;22.29;100.00;148323.75;5076563;28;20385;-79
2022/05/22 08:52:26;;;;;;;;;;;;;;;21.45;100.00;148114.69;5057035;28;19913;-81
2022/05/22 08:54:58;;;;;;;;;;;;;;;21.58;100.00;148146.81;5040096;28;19917;-79
2022/05/22 09:00:10;;;;;;;;;;;;;;;21.22;100.00;148055.72;5058006;28;20464;-79
2022/05/22 09:02:38;;;;;;;;;;;;;;;21.58;100.00;148145.50;5057840;28;19917;-80
2022/05/22 09:05:07;;;;;;;;;;;;;;;21.46;100.00;148117.25;5039567;28;19921;-79
2022/05/22 09:07:39;;;;;;;;;;;;;;;21.39;100.00;148098.03;5040231;28;19921;-78
2022/05/22 09:10:07;;;;;;;;;;;;;;;21.31;100.00;148080.06;5040360;28;20340;-77
2022/05/22 09:12:39;;;;;;;;;;;;;;;21.87;100.00;148219.88;5057122;28;19921;-79
2022/05/22 09:15:10;;;;;;;;;;;;;;;21.81;100.00;148204.53;5040468;28;19917;-79
2022/05/22 09:17:53;;;;;;;;;;;;;;;21.99;100.00;148249.38;5040281;28;19999;-79
2022/05/22 09:20:20;;;;;;;;;;;;;;;21.40;100.00;148100.63;5057599;28;20377;-81
2022/05/22 09:22:45;;;;;;;;;;;;;;;21.60;100.00;148151.94;5040200;28;20059;-78
2022/05/22 09:25:19;;;;;;;;;;;;;;;21.86;100.00;148216.03;5040396;28;19994;-81
2022/05/22 09:28:05;;;;;;;;;;;;;;;21.61;100.00;148153.19;5022901;28;19971;-80
2022/05/22 09:30:37;;;;;;;;;;;;;;;20.93;100.00;147985.25;5026544;28;19921;-79
2022/05/22 09:33:13;;;;;;;;;;;;;;;20.65;100.00;147914.78;5039933;28;19917;-80
2022/05/22 09:35:44;;;;;;;;;;;;;;;21.63;100.00;148159.63;5057989;28;19955;-81
2022/05/22 09:38:19;;;;;;;;;;;;;;;21.32;100.00;148081.38;5039761;28;19993;-81
2022/05/22 09:40:46;;;;;;;;;;;;;;;21.19;100.00;148048.03;5038509;28;19924;-78
2022/05/22 09:43:38;;;;;;;;;;;;;;;21.19;100.00;148048.03;5040485;28;19979;-78
2022/05/22 09:46:22;;;;;;;;;;;;;;;21.10;100.00;148026.22;5037289;28;20349;-79
2022/05/22 09:48:57;;;;;;;;;;;;;;;21.04;100.00;148012.16;5036884;28;19916;-79
2022/05/22 09:51:25;;;;;;;;;;;;;;;20.39;100.00;147850.66;5037492;28;20373;-77
2022/05/22 09:54:00;;;;;;;;;;;;;;;20.73;100.00;147934.00;5036622;28;19952;-79
2022/05/22 09:56:25;;;;;;;;;;;;;;;20.62;100.00;147907.03;5036503;28;20015;-79
2022/05/22 09:59:09;;;;;;;;;;;;;;;20.25;100.00;147814.78;5054764;28;20012;-78
2022/05/22 10:01:43;;;;;;;;;;;;;;;20.99;100.00;147999.38;5036689;28;19935;-78
2022/05/22 10:04:12;;;;;;;;;;;;;;;21.02;100.00;148005.75;5036981;28;19962;-79
2022/05/22 10:06:58;;;;;;;;;;;;;;;21.45;100.00;148114.69;5036598;28;19921;-78
2022/05/22 10:09:26;;;;;;;;;;;;;;;21.37;100.00;148092.94;5036869;28;19921;-78
2022/05/22 10:12:10;;;;;;;;;;;;;;;20.61;100.00;147904.47;5036631;28;19939;-75
2022/05/22 10:14:48;;;;;;;;;;;;;;;20.93;100.00;147983.97;5034796;28;19946;-75
2022/05/22 10:17:23;;;;;;;;;;;;;;;21.47;100.00;148118.53;5035707;28;19994;-77
2022/05/22 10:20:14;;;;;;;;;;;;;;;21.89;100.00;148223.72;5035790;28;19963;-74
2022/05/22 10:22:59;;;;;;;;;;;;;;;21.96;100.00;148240.41;5031439;28;19916;-78
2022/05/22 10:25:25;;;;;;;;;;;;;;;22.13;100.00;148284.00;5055839;28;19921;-76
2022/05/22 10:27:50;;;;;;;;;;;;;;;22.15;100.00;148289.13;5055681;28;19924;-75
2022/05/22 10:30:24;;;;;;;;;;;;;;;21.35;100.00;148089.06;5054911;28;20406;-75
2022/05/22 10:32:54;;;;;;;;;;;;;;;21.16;100.00;148041.63;5065050;28;19951;-77
2022/05/22 10:35:25;;;;;;;;;;;;;;;20.87;100.00;147968.59;5057161;28;19924;-76
2022/05/22 10:37:50;;;;;;;;;;;;;;;21.46;100.00;148116.00;5071228;28;19920;-76
2022/05/22 10:40:20;;;;;;;;;;;;;;;21.82;100.00;148205.78;5055408;28;19916;-77
2022/05/22 10:42:46;;;;;;;;;;;;;;;21.22;100.00;148055.72;5073413;28;19916;-78
2022/05/22 10:45:35;;;;;;;;;;;;;;;21.08;100.00;148022.38;5055929;28;20015;-78
2022/05/22 10:48:19;;;;;;;;;;;;;;;21.01;100.00;148004.47;5080169;28;19966;-81
2022/05/22 10:50:52;;;;;;;;;;;;;;;21.39;100.00;148098.03;5051296;28;19921;-78
2022/05/22 10:53:25;;;;;;;;;;;;;;;20.56;100.00;147891.66;5052677;28;20528;-78
2022/05/22 10:55:52;;;;;;;;;;;;;;;20.75;100.00;147940.38;5051648;28;19921;-78
2022/05/22 10:58:26;;;;;;;;;;;;;;;20.89;100.00;147973.72;5036656;28;20372;-77
2022/05/22 11:00:53;;;;;;;;;;;;;;;21.48;100.00;148121.13;5053651;28;19959;-78
2022/05/22 11:03:24;;;;;;;;;;;;;;;21.36;100.00;148091.59;5052734;28;19917;-76
2022/05/22 11:05:51;;;;;;;;;;;;;;;21.07;100.00;148019.84;5052278;28;20330;-79
2022/05/22 11:08:24;;;;;;;;;;;;;;;21.27;100.00;148069.84;5053053;28;19924;-78
2022/05/22 11:10:49;;;;;;;;;;;;;;;21.31;100.00;148078.81;5052853;28;20357;-78
2022/05/22 11:13:21;;;;;;;;;;;;;;;20.97;100.00;147994.19;5053986;28;19975;-77
2022/05/22 11:15:46;;;;;;;;;;;;;;;21.48;100.00;148121.13;5052568;28;20015;-77
2022/05/22 11:18:31;;;;;;;;;;;;;;;21.91;100.00;148227.56;5052448;28;20008;-79
2022/05/22 11:21:04;;;;;;;;;;;;;;;21.14;100.00;148037.78;5051963;28;20237;-77
2022/05/22 11:23:35;;;;;;;;;;;;;;;21.29;100.00;148074.97;5053007;28;19942;-76
2022/05/22 11:26:08;;;;;;;;;;;;;;;21.49;100.00;148123.75;5033184;28;19917;-75
2022/05/22 11:28:52;;;;;;;;;;;;;;;21.26;100.00;148066.00;5030946;28;19948;-76
2022/05/22 11:31:30;;;;;;;;;;;;;;;21.33;100.00;148083.91;5031228;28;19918;-75
2022/05/22 11:34:04;;;;;;;;;;;;;;;21.67;100.00;148169.91;5030769;28;20318;-76
2022/05/22 11:36:32;;;;;;;;;;;;;;;21.41;100.00;148104.47;5032139;28;19917;-76
2022/05/22 11:39:01;;;;;;;;;;;;;;;22.00;100.00;148251.97;5030544;28;20305;-75
2022/05/22 11:41:34;;;;;;;;;;;;;;;21.59;100.00;148148.09;5031492;28;20354;-75
2022/05/22 11:44:00;;;;;;;;;;;;;;;21.92;100.00;148231.41;5031961;28;20016;-76
2022/05/22 11:46:26;;;;;;;;;;;;;;;21.36;100.00;148091.59;5030773;28;20008;-74
2022/05/22 11:49:00;;;;;;;;;;;;;;;21.41;100.00;148103.16;5030269;28;20074;-75
2022/05/22 11:51:34;;;;;;;;;;;;;;;21.23;100.00;148059.56;5047779;28;20263;-75
2022/05/22 11:54:05;;;;;;;;;;;;;;;20.75;100.00;147940.38;5030169;28;19921;-75
2022/05/22 11:56:37;;;;;;;;;;;;;;;20.88;100.00;147971.13;5031814;28;19913;-75
2022/05/22 11:59:20;;;;;;;;;;;;;;;21.07;100.00;148018.59;5030747;28;20008;-74
2022/05/22 12:01:54;;;;;;;;;;;;;;;21.39;100.00;148099.31;5046550;28;19917;-76
2022/05/22 12:04:43;;;;;;;;;;;;;;;21.23;100.00;148058.31;5032406;28;19918;-78
2022/05/22 12:07:20;;;;;;;;;;;;;;;20.76;100.00;147941.69;5047037;28;20739;-78
2022/05/22 12:10:04;;;;;;;;;;;;;;;20.20;100.00;147802.00;5031792;28;20016;-78
2022/05/22 12:12:41;;;;;;;;;;;;;;;21.09;100.00;148024.97;5030844;28;19917;-76
2022/05/22 12:15:10;;;;;;;;;;;;;;;21.16;100.00;148041.63;5032384;28;19945;-79
2022/05/22 12:17:43;;;;;;;;;;;;;;;21.63;100.00;148158.34;5031301;28;19923;-79
2022/05/22 12:20:27;;;;;;;;;;;;;;;21.48;100.00;148122.38;5048103;28;19921;-78
2022/05/22 12:23:09;;;;;;;;;;;;;;;21.54;100.00;148136.56;5031134;28;19937;-77
2022/05/22 12:25:38;;;;;;;;;;;;;;;21.33;100.00;148085.22;5031244;28;19913;-78
2022/05/22 12:28:05;;;;;;;;;;;;;;;21.15;100.00;148039.09;5047936;28;19927;-78
2022/05/22 12:30:38;;;;;;;;;;;;;;;21.78;100.00;148195.50;5051001;28;19917;-78
2022/05/22 12:33:08;;;;;;;;;;;;;;;22.23;100.00;148309.69;5052488;28;19921;-78
2022/05/22 12:35:36;;;;;;;;;;;;;;;22.20;100.00;148302.00;5052170;28;19917;-77
2022/05/22 12:38:02;;;;;;;;;;;;;;;22.47;100.00;148368.72;5051182;28;19963;-78
2022/05/22 12:40:38;;;;;;;;;;;;;;;22.55;100.00;148387.97;5050055;28;19917;-77
2022/05/22 12:43:06;;;;;;;;;;;;;;;22.44;100.00;148359.75;5051036;28;19916;-78